createdAt,value
2018-06-19T00:01:54.879Z,2.63
2018-06-19T00:04:23.105Z,3.17
2018-06-19T00:06:51.397Z,2.70
2018-06-19T00:09:19.643Z,2.87
2018-06-19T00:11:47.880Z,2.87
2018-06-19T00:14:16.286Z,2.60
2018-06-19T00:16:44.508Z,3.00
2018-06-19T00:19:12.987Z,2.90
2018-06-19T00:21:46.667Z,2.80
2018-06-19T00:24:14.909Z,2.70
2018-06-19T00:26:42.896Z,3.00
2018-06-19T00:29:11.132Z,2.80
2018-06-19T00:31:39.379Z,2.80
2018-06-19T00:34:07.679Z,3.10
2018-06-19T00:36:35.884Z,3.10
2018-06-19T00:39:05.922Z,2.70
2018-06-19T00:41:34.139Z,3.07
2018-06-19T00:44:02.411Z,2.80
2018-06-19T00:46:31.111Z,3.20
2018-06-19T00:48:59.335Z,3.77
2018-06-19T00:51:27.550Z,3.00
2018-06-19T00:53:55.772Z,3.00
2018-06-19T00:56:35.692Z,3.10
2018-06-19T00:59:03.896Z,3.17
2018-06-19T01:01:32.102Z,3.30
2018-06-19T01:04:00.348Z,3.50
2018-06-19T01:06:28.568Z,3.40
2018-06-19T01:08:56.793Z,3.10
2018-06-19T01:11:25.007Z,3.20
2018-06-19T01:13:53.416Z,3.07
2018-06-19T01:16:21.637Z,2.93
2018-06-19T01:18:49.852Z,3.00
2018-06-19T01:21:18.082Z,3.00
2018-06-19T01:23:46.289Z,2.87
2018-06-19T01:26:14.515Z,3.10
2018-06-19T01:28:42.742Z,3.03
2018-06-19T01:31:10.988Z,3.13
2018-06-19T01:33:39.220Z,3.50
2018-06-19T01:36:07.454Z,3.27
2018-06-19T01:38:35.704Z,3.30
2018-06-19T01:41:03.940Z,2.97
2018-06-19T01:43:32.180Z,3.37
2018-06-19T01:46:00.424Z,3.70
2018-06-19T01:48:28.644Z,3.77
2018-06-19T01:50:56.872Z,3.43
2018-06-19T01:53:25.125Z,3.70
2018-06-19T01:55:53.521Z,3.50
2018-06-19T01:58:21.767Z,3.40
2018-06-19T02:00:49.991Z,3.37
2018-06-19T02:03:18.208Z,3.30
2018-06-19T02:05:46.439Z,3.37
2018-06-19T02:08:14.675Z,3.60
2018-06-19T02:10:42.915Z,3.40
2018-06-19T02:13:11.111Z,3.07
2018-06-19T02:15:39.378Z,3.80
2018-06-19T02:18:07.598Z,3.47
2018-06-19T02:20:35.832Z,3.53
2018-06-19T02:23:04.120Z,3.17
2018-06-19T02:25:32.326Z,3.37
2018-06-19T02:28:00.559Z,3.40
2018-06-19T02:30:28.786Z,3.50
2018-06-19T02:32:57.005Z,3.60
2018-06-19T02:35:25.306Z,3.23
2018-06-19T02:37:53.535Z,3.70
2018-06-19T02:40:21.763Z,3.60
2018-06-19T02:42:49.997Z,4.07
2018-06-19T02:45:18.209Z,3.43
2018-06-19T02:47:46.448Z,3.30
2018-06-19T02:50:15.124Z,3.83
2018-06-19T02:52:43.352Z,3.50
2018-06-19T02:55:11.560Z,3.57
2018-06-19T02:57:41.049Z,3.70
2018-06-19T03:00:09.295Z,4.10
2018-06-19T03:02:37.531Z,3.90
2018-06-19T03:05:06.056Z,3.83
2018-06-19T03:07:34.298Z,3.80
2018-06-19T03:10:02.494Z,3.20
2018-06-19T03:12:30.721Z,3.80
2018-06-19T03:14:58.925Z,3.80
2018-06-19T03:17:27.295Z,3.70
2018-06-19T03:19:55.604Z,3.47
2018-06-19T03:22:23.832Z,3.30
2018-06-19T03:24:52.047Z,3.97
2018-06-19T03:27:20.294Z,3.50
2018-06-19T03:29:48.540Z,4.30
2018-06-19T03:32:16.755Z,3.70
2018-06-19T03:34:44.959Z,3.53
2018-06-19T03:37:13.197Z,3.60
2018-06-19T03:39:41.438Z,3.80
2018-06-19T03:42:09.712Z,3.73
2018-06-19T03:44:37.948Z,3.80
2018-06-19T03:47:06.147Z,3.60
2018-06-19T03:49:34.387Z,3.73
2018-06-19T03:52:02.716Z,3.73
2018-06-19T03:54:30.955Z,3.97
2018-06-19T03:56:59.162Z,3.90
2018-06-19T03:59:27.393Z,4.23
2018-06-19T04:01:55.620Z,4.73
2018-06-19T04:04:23.846Z,4.30
2018-06-19T04:06:52.078Z,4.13
2018-06-19T04:09:20.350Z,3.70
2018-06-19T04:11:48.527Z,4.10
2018-06-19T04:14:16.760Z,3.90
2018-06-19T04:16:45.013Z,3.90
2018-06-19T04:19:13.252Z,3.80
2018-06-19T04:21:41.471Z,3.77
2018-06-19T04:24:09.724Z,4.00
2018-06-19T04:26:38.062Z,4.60
2018-06-19T04:29:06.067Z,3.47
2018-06-19T04:31:34.271Z,4.10
2018-06-19T04:34:02.490Z,3.70
2018-06-19T04:36:30.886Z,3.70
2018-06-19T04:38:59.435Z,4.90
2018-06-19T04:41:27.660Z,4.67
2018-06-19T04:43:55.899Z,4.97
2018-06-19T04:46:24.144Z,4.73
2018-06-19T04:48:52.383Z,4.07
2018-06-19T04:51:20.724Z,4.20
2018-06-19T04:53:49.073Z,4.30
2018-06-19T04:56:17.316Z,4.20
2018-06-19T04:58:45.547Z,3.73
2018-06-19T05:01:13.803Z,3.80
2018-06-19T05:03:42.082Z,3.63
2018-06-19T05:06:10.416Z,3.90
2018-06-19T05:08:38.669Z,3.70
2018-06-19T05:11:07.128Z,4.13
2018-06-19T05:13:35.438Z,3.90
2018-06-19T05:16:03.924Z,3.87
2018-06-19T05:18:32.165Z,3.63
2018-06-19T05:21:00.388Z,4.20
2018-06-19T05:23:28.624Z,4.10
2018-06-19T05:25:57.535Z,4.40
2018-06-19T05:28:25.784Z,4.57
2018-06-19T05:30:54.015Z,4.27
2018-06-19T05:33:22.229Z,4.10
2018-06-19T05:35:50.455Z,4.53
2018-06-19T05:38:18.680Z,4.40
2018-06-19T05:40:47.108Z,4.40
2018-06-19T05:43:15.364Z,4.33
2018-06-19T05:45:43.624Z,4.90
2018-06-19T05:48:11.857Z,5.03
2018-06-19T05:50:40.161Z,4.53
2018-06-19T05:53:08.393Z,5.23
2018-06-19T05:55:36.632Z,5.27
2018-06-19T05:58:04.836Z,5.17
2018-06-19T06:00:33.134Z,5.03
2018-06-19T06:03:01.351Z,5.67
2018-06-19T06:05:29.660Z,5.03
2018-06-19T06:07:57.940Z,4.63
2018-06-19T06:10:26.179Z,4.40
2018-06-19T06:12:54.411Z,4.77
2018-06-19T06:15:22.662Z,4.93
2018-06-19T06:17:50.946Z,5.43
2018-06-19T06:20:19.225Z,5.37
2018-06-19T06:22:47.497Z,5.67
2018-06-19T06:25:15.482Z,5.40
2018-06-19T06:27:43.781Z,5.73
2018-06-19T06:30:12.007Z,4.67
2018-06-19T06:32:40.060Z,4.30
2018-06-19T06:35:08.282Z,5.73
2018-06-19T06:37:36.571Z,5.50
2018-06-19T06:40:05.015Z,6.33
2018-06-19T06:42:33.252Z,5.10
2018-06-19T06:45:01.493Z,5.27
2018-06-19T06:47:29.783Z,4.77
2018-06-19T06:49:58.175Z,5.43
2018-06-19T06:52:26.398Z,4.87
2018-06-19T06:54:54.629Z,4.33
2018-06-19T06:57:22.864Z,5.20
2018-06-19T06:59:51.100Z,5.13
2018-06-19T07:02:19.336Z,5.00
2018-06-19T07:04:47.626Z,5.17
2018-06-19T07:07:15.937Z,6.87
2018-06-19T07:09:44.145Z,5.07
2018-06-19T07:12:12.413Z,5.67
2018-06-19T07:14:40.626Z,5.37
2018-06-19T07:17:09.239Z,5.47
2018-06-19T07:19:37.471Z,4.70
2018-06-19T07:22:05.852Z,5.10
2018-06-19T07:24:34.081Z,5.87
2018-06-19T07:27:02.333Z,5.70
2018-06-19T07:29:30.573Z,5.83
2018-06-19T07:31:58.900Z,5.37
2018-06-19T07:34:27.376Z,4.95
2018-06-19T07:36:55.368Z,4.30
2018-06-19T07:39:23.625Z,4.35
2018-06-19T07:41:51.860Z,4.50
2018-06-19T07:44:20.106Z,3.50
2018-06-19T07:46:48.443Z,4.35
2018-06-19T07:49:16.685Z,4.05
2018-06-19T07:51:44.896Z,3.98
2018-06-19T07:54:13.151Z,4.37
2018-06-19T07:56:41.165Z,3.62
2018-06-19T07:59:09.459Z,4.10
2018-06-19T08:01:37.684Z,3.40
2018-06-19T08:04:05.970Z,3.65
2018-06-19T08:06:34.567Z,3.98
2018-06-19T08:09:02.959Z,3.30
2018-06-19T08:11:31.189Z,4.17
2018-06-19T08:13:59.224Z,3.83
2018-06-19T08:16:27.469Z,3.60
2018-06-19T08:19:01.443Z,3.60
2018-06-19T08:21:29.807Z,3.17
2018-06-19T08:23:58.040Z,3.02
2018-06-19T08:26:26.288Z,3.75
2018-06-19T08:28:55.044Z,2.47
2018-06-19T08:31:23.258Z,2.92
2018-06-19T08:33:51.500Z,2.83
2018-06-19T08:36:19.510Z,2.60
2018-06-19T08:38:47.955Z,2.60
2018-06-19T08:41:16.180Z,2.90
2018-06-19T08:43:44.624Z,2.37
2018-06-19T08:46:12.876Z,2.90
2018-06-19T08:48:41.108Z,2.47
2018-06-19T08:51:09.358Z,2.80
2018-06-19T08:53:37.591Z,2.58
2018-06-19T08:56:06.184Z,2.83
2018-06-19T08:58:34.727Z,2.83
2018-06-19T09:01:03.008Z,2.90
2018-06-19T09:03:31.233Z,2.70
2018-06-19T09:05:59.575Z,2.70
2018-06-19T09:08:27.823Z,2.77
2018-06-19T09:10:56.081Z,2.30
2018-06-19T09:13:24.372Z,2.55
2018-06-19T09:15:52.588Z,2.60
2018-06-19T09:18:20.824Z,2.58
2018-06-19T09:20:49.101Z,2.47
2018-06-19T09:23:17.324Z,2.70
2018-06-19T09:25:45.573Z,2.98
2018-06-19T09:28:13.812Z,3.33
2018-06-19T09:30:42.039Z,3.50
2018-06-19T09:33:10.272Z,2.42
2018-06-19T09:35:38.519Z,2.90
2018-06-19T09:38:06.868Z,2.50
2018-06-19T09:40:35.144Z,2.77
2018-06-19T09:43:03.407Z,3.62
2018-06-19T09:45:31.649Z,2.50
2018-06-19T09:47:59.927Z,2.33
2018-06-19T09:50:28.164Z,1.92
2018-06-19T09:52:56.416Z,2.77
2018-06-19T09:55:24.708Z,2.47
2018-06-19T09:57:52.956Z,2.20
2018-06-19T10:00:26.430Z,2.90
2018-06-19T10:02:54.670Z,1.95
2018-06-19T10:05:22.924Z,2.15
2018-06-19T10:07:51.328Z,2.35
2018-06-19T10:10:19.696Z,2.30
2018-06-19T10:12:47.978Z,2.50
2018-06-19T10:15:16.447Z,2.08
2018-06-19T10:17:44.672Z,2.25
2018-06-19T10:20:13.197Z,2.20
2018-06-19T10:22:41.471Z,2.10
2018-06-19T10:25:09.715Z,2.30
2018-06-19T10:27:37.758Z,2.20
2018-06-19T10:30:05.979Z,2.20
2018-06-19T10:32:34.397Z,2.50
2018-06-19T10:35:02.680Z,2.10
2018-06-19T10:37:31.184Z,2.40
2018-06-19T10:40:00.111Z,2.85
2018-06-19T10:42:28.454Z,2.27
2018-06-19T10:44:56.681Z,2.00
2018-06-19T10:47:25.099Z,2.35
2018-06-19T10:49:53.326Z,2.12
2018-06-19T10:52:21.668Z,2.15
2018-06-19T10:54:49.989Z,2.05
2018-06-19T10:57:18.410Z,1.87
2018-06-19T10:59:46.656Z,2.30
2018-06-19T11:02:14.990Z,2.67
2018-06-19T11:04:43.205Z,2.30
2018-06-19T11:07:11.444Z,2.17
2018-06-19T11:09:39.690Z,2.10
2018-06-19T11:12:07.930Z,2.10
2018-06-19T11:14:36.202Z,2.23
2018-06-19T11:17:04.481Z,1.90
2018-06-19T11:19:32.692Z,2.55
2018-06-19T11:22:00.971Z,2.55
2018-06-19T11:24:29.208Z,2.20
2018-06-19T11:26:57.461Z,2.35
2018-06-19T11:29:25.744Z,2.20
2018-06-19T11:31:53.966Z,2.47
2018-06-19T11:34:22.198Z,2.00
2018-06-19T11:36:50.453Z,2.27
2018-06-19T11:39:18.692Z,1.87
2018-06-19T11:41:46.909Z,2.15
2018-06-19T11:44:14.919Z,2.30
2018-06-19T11:46:43.184Z,2.45
2018-06-19T11:49:11.452Z,2.30
2018-06-19T11:51:39.679Z,2.22
2018-06-19T11:54:08.231Z,2.30
2018-06-19T11:56:36.531Z,2.30
2018-06-19T11:59:04.873Z,2.57
2018-06-19T12:01:33.256Z,2.20
2018-06-19T12:04:01.502Z,2.60
2018-06-19T12:06:29.766Z,2.20
2018-06-19T12:08:58.048Z,2.77
2018-06-19T12:11:26.284Z,2.10
2018-06-19T12:13:54.425Z,2.52
2018-06-19T12:16:24.104Z,2.87
2018-06-19T12:18:52.432Z,2.35
2018-06-19T12:21:20.695Z,2.27
2018-06-19T12:23:48.742Z,2.20
2018-06-19T12:26:17.073Z,2.43
2018-06-19T12:28:45.391Z,2.23
2018-06-19T12:31:13.732Z,2.30
2018-06-19T12:33:41.974Z,2.77
2018-06-19T12:36:09.964Z,2.47
2018-06-19T12:38:38.409Z,2.60
2018-06-19T12:41:06.785Z,2.40
2018-06-19T12:43:35.039Z,2.40
2018-06-19T12:46:03.264Z,2.33
2018-06-19T12:48:31.268Z,2.30
2018-06-19T12:52:11.877Z,2.47
2018-06-19T12:55:22.218Z,2.23
2018-06-19T12:57:50.899Z,2.20
2018-06-19T13:00:19.217Z,2.30
2018-06-19T13:02:59.231Z,2.57
2018-06-19T13:05:38.787Z,2.10
2018-06-19T13:08:07.032Z,1.90
2018-06-19T13:10:35.322Z,2.08
2018-06-19T13:13:22.756Z,2.10
2018-06-19T13:15:52.173Z,2.30
2018-06-19T13:18:33.050Z,2.02
2018-06-19T13:21:01.087Z,2.10
2018-06-19T13:23:29.502Z,2.00
2018-06-19T13:25:57.724Z,2.10
2018-06-19T13:28:37.391Z,2.20
2018-06-19T13:31:17.253Z,2.27
2018-06-19T13:33:45.557Z,2.87
2018-06-19T13:36:13.901Z,2.30
2018-06-19T13:38:42.583Z,2.40
2018-06-19T13:41:28.149Z,2.20
2018-06-19T13:44:11.181Z,2.72
2018-06-19T13:46:39.190Z,2.67
2018-06-19T13:49:07.504Z,2.60
2018-06-19T13:51:35.805Z,2.80
2018-06-19T13:54:04.020Z,2.87
2018-06-19T13:57:46.366Z,2.62
2018-06-19T14:00:17.521Z,2.60
2018-06-19T14:02:45.782Z,2.85
2018-06-19T14:05:14.915Z,2.55
2018-06-19T14:07:56.781Z,2.77
2018-06-19T14:10:36.248Z,3.12
2018-06-19T14:13:04.516Z,2.30
2018-06-19T14:15:38.718Z,2.65
2018-06-19T14:18:07.200Z,2.60
2018-06-19T14:20:35.542Z,2.67
2018-06-19T14:23:04.158Z,2.60
2018-06-19T14:25:32.386Z,2.80
2018-06-19T14:28:00.632Z,2.50
2018-06-19T14:30:28.901Z,2.40
2018-06-19T14:32:56.957Z,2.73
2018-06-19T14:35:25.220Z,2.20
2018-06-19T14:37:53.452Z,2.40
2018-06-19T14:40:21.750Z,3.53
2018-06-19T14:42:49.955Z,2.60
2018-06-19T14:45:18.193Z,2.30
2018-06-19T14:47:46.434Z,2.50
2018-06-19T14:50:14.976Z,2.50
2018-06-19T14:52:43.384Z,2.43
2018-06-19T14:55:11.576Z,2.50
2018-06-19T14:57:40.116Z,2.30
2018-06-19T15:00:09.370Z,2.50
2018-06-19T15:02:38.779Z,2.60
2018-06-19T15:05:07.447Z,2.73
2018-06-19T15:07:41.182Z,2.40
2018-06-19T15:10:09.498Z,2.80
2018-06-19T15:12:37.866Z,2.67
2018-06-19T15:15:06.180Z,2.73
2018-06-19T15:17:34.409Z,2.70
2018-06-19T15:20:02.683Z,2.30
2018-06-19T15:22:31.035Z,2.83
2018-06-19T15:24:59.427Z,2.67
2018-06-19T15:27:27.636Z,3.30
2018-06-19T15:29:55.936Z,2.70
2018-06-19T15:32:24.190Z,2.30
2018-06-19T15:34:52.440Z,2.50
2018-06-19T15:37:20.860Z,2.60
2018-06-19T15:39:49.504Z,2.40
2018-06-19T15:42:17.799Z,2.47
2018-06-19T15:44:46.074Z,2.40
2018-06-19T15:47:14.351Z,2.40
2018-06-19T15:49:42.590Z,2.60
2018-06-19T15:52:10.804Z,2.50
2018-06-19T15:54:39.102Z,2.33
2018-06-19T15:57:07.321Z,2.10
2018-06-19T15:59:35.560Z,2.60
2018-06-19T16:02:03.775Z,2.23
2018-06-19T16:04:31.979Z,2.60
2018-06-19T16:07:00.201Z,2.47
2018-06-19T16:09:28.459Z,2.33
2018-06-19T16:11:56.821Z,2.90
2018-06-19T16:14:25.150Z,2.10
2018-06-19T16:16:53.442Z,2.70
2018-06-19T16:19:21.660Z,2.60
2018-06-19T16:21:49.911Z,2.03
2018-06-19T16:24:19.080Z,2.40
2018-06-19T16:26:47.334Z,2.10
2018-06-19T16:29:15.600Z,2.27
2018-06-19T16:31:43.848Z,2.43
2018-06-19T16:34:12.110Z,3.13
2018-06-19T16:36:40.404Z,2.63
2018-06-19T16:39:09.694Z,2.23
2018-06-19T16:41:38.357Z,2.40
2018-06-19T16:44:07.174Z,2.60
2018-06-19T16:46:36.099Z,2.67
2018-06-19T16:49:04.843Z,2.90
2018-06-19T16:51:33.399Z,2.30
2018-06-19T16:54:01.878Z,2.70
2018-06-19T16:56:30.399Z,3.10
2018-06-19T16:58:59.364Z,2.80
2018-06-19T17:01:28.188Z,2.60
2018-06-19T17:03:56.482Z,3.03
2018-06-19T17:06:25.475Z,3.00
2018-06-19T17:08:54.068Z,3.17
2018-06-19T17:11:22.424Z,2.53
2018-06-19T17:13:51.742Z,2.60
2018-06-19T17:16:19.876Z,2.90
2018-06-19T17:18:48.176Z,2.50
2018-06-19T17:21:16.467Z,2.50
2018-06-19T17:23:44.707Z,2.70
2018-06-19T17:26:13.045Z,2.80
2018-06-19T17:28:41.306Z,2.70
2018-06-19T17:31:09.555Z,2.53
2018-06-19T17:33:37.807Z,2.40
2018-06-19T17:36:06.021Z,2.53
2018-06-19T17:38:34.255Z,3.00
2018-06-19T17:41:02.543Z,2.67
2018-06-19T17:43:30.755Z,2.80
2018-06-19T17:45:59.025Z,3.10
2018-06-19T17:48:27.031Z,2.80
2018-06-19T17:50:55.301Z,3.00
2018-06-19T17:53:23.524Z,2.67
2018-06-19T17:55:51.812Z,3.10
2018-06-19T17:58:20.744Z,3.00
2018-06-19T18:00:49.053Z,2.80
2018-06-19T18:03:17.284Z,3.07
2018-06-19T18:05:45.544Z,2.67
2018-06-19T18:08:13.827Z,3.00
2018-06-19T18:10:42.109Z,4.90
2018-06-19T18:13:10.495Z,2.80
2018-06-19T18:15:38.998Z,2.43
2018-06-19T18:18:07.661Z,6.73
2018-06-19T18:20:35.997Z,4.23
2018-06-19T18:23:04.068Z,3.00
2018-06-19T18:25:32.064Z,2.80
2018-06-19T18:28:00.471Z,3.20
2018-06-19T18:30:28.732Z,3.10
2018-06-19T18:32:56.977Z,2.47
2018-06-19T18:35:25.223Z,3.13
2018-06-19T18:37:53.502Z,2.73
2018-06-19T18:40:21.764Z,2.73
2018-06-19T18:42:50.004Z,2.70
2018-06-19T18:45:18.331Z,2.80
2018-06-19T18:47:46.580Z,2.87
2018-06-19T18:50:14.880Z,3.20
2018-06-19T18:52:43.104Z,2.97
2018-06-19T18:55:11.360Z,2.57
2018-06-19T18:57:39.628Z,2.83
2018-06-19T19:00:07.877Z,2.87
2018-06-19T19:02:36.115Z,2.40
2018-06-19T19:05:04.461Z,2.77
2018-06-19T19:07:32.895Z,2.90
2018-06-19T19:10:06.543Z,3.20
2018-06-19T19:12:34.789Z,3.10
2018-06-19T19:15:08.247Z,2.90
2018-06-19T19:17:41.853Z,3.10
2018-06-19T19:20:10.194Z,3.20
2018-06-19T19:22:38.486Z,3.00
2018-06-19T19:25:06.772Z,2.90
2018-06-19T19:27:40.789Z,3.00
2018-06-19T19:30:09.479Z,3.10
2018-06-19T19:32:37.727Z,3.27
2018-06-19T19:35:05.968Z,2.97
2018-06-19T19:37:39.566Z,3.13
2018-06-19T19:40:07.760Z,3.30
2018-06-19T19:42:36.016Z,3.03
2018-06-19T19:45:04.273Z,3.23
2018-06-19T19:47:37.863Z,3.13
2018-06-19T19:50:06.277Z,3.90
2018-06-19T19:52:34.543Z,3.17
2018-06-19T19:55:02.606Z,3.30
2018-06-19T19:57:36.218Z,3.30
2018-06-19T20:00:05.238Z,3.13
2018-06-19T20:02:33.527Z,3.20
2018-06-19T20:05:02.085Z,3.17
2018-06-19T20:07:30.475Z,2.80
2018-06-19T20:09:58.674Z,3.60
2018-06-19T20:12:26.898Z,3.00
2018-06-19T20:14:55.148Z,3.00
2018-06-19T20:17:23.439Z,3.10
2018-06-19T20:19:51.646Z,3.13
2018-06-19T20:22:19.964Z,2.90
2018-06-19T20:24:48.244Z,3.13
2018-06-19T20:27:16.517Z,3.20
2018-06-19T20:29:44.756Z,3.17
2018-06-19T20:32:13.252Z,3.63
2018-06-19T20:34:41.504Z,3.33
2018-06-19T20:37:09.803Z,3.80
2018-06-19T20:39:38.088Z,3.80
2018-06-19T20:42:06.482Z,4.10
2018-06-19T20:44:34.716Z,3.70
2018-06-19T20:47:03.037Z,3.40
2018-06-19T20:49:31.299Z,3.70
2018-06-19T20:52:00.149Z,3.37
2018-06-19T20:54:28.462Z,3.80
2018-06-19T20:56:56.667Z,3.60
2018-06-19T20:59:24.942Z,3.67
2018-06-19T21:01:53.192Z,3.20
2018-06-19T21:04:21.430Z,3.67
2018-06-19T21:06:49.652Z,3.70
2018-06-19T21:09:17.972Z,3.90
2018-06-19T21:11:46.262Z,3.77
2018-06-19T21:14:14.579Z,3.60
2018-06-19T21:16:42.822Z,3.70
2018-06-19T21:19:11.045Z,3.93
2018-06-19T21:21:39.270Z,3.73
2018-06-19T21:24:07.642Z,3.40
2018-06-19T21:26:35.941Z,3.70
2018-06-19T21:29:04.274Z,3.70
2018-06-19T21:31:32.577Z,3.80
2018-06-19T21:34:00.879Z,4.17
2018-06-19T21:36:29.101Z,3.90
2018-06-19T21:38:57.320Z,3.80
2018-06-19T21:41:25.733Z,4.20
2018-06-19T21:43:54.257Z,4.10
2018-06-19T21:46:22.532Z,3.80
2018-06-19T21:48:50.749Z,3.87
2018-06-19T21:51:18.791Z,3.90
2018-06-19T21:53:47.036Z,4.57
2018-06-19T21:56:15.297Z,4.00
2018-06-19T21:58:43.935Z,3.90
2018-06-19T22:01:11.933Z,4.50
2018-06-19T22:03:40.205Z,4.37
2018-06-19T22:06:08.427Z,4.60
2018-06-19T22:08:42.142Z,4.50
2018-06-19T22:11:10.408Z,5.27
2018-06-19T22:13:38.654Z,4.90
2018-06-19T22:16:06.899Z,4.67
2018-06-19T22:18:35.186Z,5.53
2018-06-19T22:21:03.458Z,5.33
2018-06-19T22:23:31.690Z,5.13
2018-06-19T22:25:59.946Z,4.83
2018-06-19T22:28:28.164Z,5.00
2018-06-19T22:30:56.208Z,5.00
2018-06-19T22:33:24.413Z,5.13
2018-06-19T22:35:52.643Z,4.90
2018-06-19T22:38:20.909Z,4.90
2018-06-19T22:40:49.149Z,5.07
2018-06-19T22:43:17.363Z,5.20
2018-06-19T22:45:45.610Z,5.90
2018-06-19T22:48:13.852Z,6.63
2018-06-19T22:50:42.937Z,6.60
2018-06-19T22:53:10.989Z,6.27
2018-06-19T22:55:39.214Z,6.40
2018-06-19T22:58:07.451Z,5.43
2018-06-19T23:00:35.447Z,6.00
2018-06-19T23:03:04.821Z,5.70
2018-06-19T23:05:33.723Z,5.70
2018-06-19T23:08:02.056Z,5.70
2018-06-19T23:10:30.657Z,5.37
2018-06-19T23:12:59.721Z,5.50
2018-06-19T23:15:27.940Z,5.70
2018-06-19T23:17:56.021Z,5.63
2018-06-19T23:20:24.016Z,6.30
2018-06-19T23:22:52.380Z,6.50
2018-06-19T23:25:20.707Z,5.73
2018-06-19T23:27:48.936Z,5.63
2018-06-19T23:30:18.176Z,5.63
2018-06-19T23:32:46.394Z,5.83
2018-06-19T23:35:14.622Z,5.20
2018-06-19T23:37:43.261Z,5.73
2018-06-19T23:40:11.680Z,5.90
2018-06-19T23:42:39.990Z,5.67
2018-06-19T23:45:08.210Z,5.27
2018-06-19T23:47:36.488Z,5.40
2018-06-19T23:50:04.934Z,5.80
2018-06-19T23:52:33.167Z,5.37
2018-06-19T23:55:01.430Z,5.30
2018-06-19T23:57:29.679Z,5.00
2018-06-19T23:59:57.888Z,5.73
